createdAt,value
2023-01-13T00:05:21.518Z,7.60
2023-01-13T00:15:27.601Z,7.40
2023-01-13T00:25:34.039Z,8.50
2023-01-13T00:35:39.870Z,10.00
2023-01-13T00:45:46.447Z,5.80
2023-01-13T00:55:59.551Z,8.20
2023-01-13T01:06:09.606Z,5.00
2023-01-13T01:16:18.455Z,6.50
2023-01-13T01:26:26.628Z,5.40
2023-01-13T01:36:32.422Z,5.40
2023-01-13T01:46:41.036Z,6.70
2023-01-13T01:56:48.085Z,5.10
2023-01-13T02:06:54.901Z,7.40
2023-01-13T02:17:19.503Z,6.10
2023-01-13T02:28:11.706Z,4.30
2023-01-13T02:38:22.292Z,5.70
2023-01-13T02:48:32.311Z,4.60
2023-01-13T02:58:40.695Z,5.90
2023-01-13T03:08:51.691Z,5.20
2023-01-13T03:19:13.740Z,5.90
2023-01-13T03:29:23.258Z,5.50
2023-01-13T03:39:34.158Z,5.10
2023-01-13T03:49:46.017Z,5.50
2023-01-13T03:59:56.285Z,4.60
2023-01-13T04:10:06.379Z,5.80
2023-01-13T04:20:13.756Z,4.50
2023-01-13T04:40:24.256Z,4.80
2023-01-13T04:50:30.300Z,4.50
2023-01-13T05:00:37.287Z,6.30
2023-01-13T05:10:43.027Z,6.90
2023-01-13T05:20:48.878Z,6.10
2023-01-13T05:30:54.738Z,4.00
2023-01-13T05:41:20.312Z,5.70
2023-01-13T05:51:26.483Z,7.00
2023-01-13T06:01:32.246Z,4.00
2023-01-13T06:11:37.963Z,6.90
2023-01-13T06:21:44.896Z,7.50
2023-01-13T06:31:50.783Z,5.00
2023-01-13T06:42:14.781Z,3.90
2023-01-13T06:52:20.782Z,5.30
2023-01-13T07:02:28.021Z,5.20
2023-01-13T07:12:53.808Z,4.10
2023-01-13T07:23:00.168Z,4.80
2023-01-13T07:33:05.785Z,7.40
2023-01-13T07:43:30.902Z,4.20
2023-01-13T07:53:37.240Z,6.30
2023-01-13T08:03:43.176Z,4.70
2023-01-13T08:13:49.017Z,7.70
2023-01-13T08:23:55.315Z,4.00
2023-01-13T08:34:01.016Z,6.70
2023-01-13T08:44:09.227Z,5.20
2023-01-13T08:54:15.532Z,7.30
2023-01-13T09:04:23.689Z,10.10
2023-01-13T09:14:31.437Z,8.70
2023-01-13T09:24:37.307Z,7.10
2023-01-13T09:35:01.937Z,5.10
2023-01-13T09:45:11.950Z,7.80
2023-01-13T09:55:21.114Z,13.10
2023-01-13T10:05:35.782Z,6.70
2023-01-13T10:15:51.359Z,5.30
2023-01-13T10:26:08.146Z,4.90
2023-01-13T10:36:21.614Z,4.70
2023-01-13T10:46:28.248Z,2.90
2023-01-13T10:56:35.825Z,3.30
2023-01-13T11:06:48.151Z,4.70
2023-01-13T11:16:58.860Z,3.40
2023-01-13T11:27:09.467Z,5.20
2023-01-13T11:37:22.512Z,4.50
2023-01-13T11:47:30.191Z,5.70
2023-01-13T11:57:54.159Z,6.50
2023-01-13T12:08:13.707Z,6.80
2023-01-13T12:18:35.239Z,5.90
2023-01-13T12:28:50.113Z,4.50
2023-01-13T12:39:00.124Z,3.60
2023-01-13T12:49:19.100Z,4.90
2023-01-13T12:59:49.127Z,6.60
2023-01-13T13:10:01.463Z,3.80
2023-01-13T13:20:29.266Z,5.30
2023-01-13T13:30:40.488Z,7.40
2023-01-13T13:41:05.624Z,6.20
2023-01-13T13:51:27.200Z,5.70
2023-01-13T14:01:37.721Z,9.20
2023-01-13T14:11:44.573Z,7.90
2023-01-13T14:21:51.521Z,8.00
2023-01-13T14:31:58.594Z,7.30
2023-01-13T14:42:04.690Z,7.40
2023-01-13T14:52:17.809Z,9.50
2023-01-13T15:02:50.061Z,7.20
2023-01-13T15:12:59.322Z,4.50
2023-01-13T15:23:05.158Z,6.10
2023-01-13T15:33:14.701Z,7.20
2023-01-13T15:43:41.344Z,9.40
2023-01-13T15:53:47.141Z,8.30
2023-01-13T16:03:52.802Z,7.90
2023-01-13T16:13:58.646Z,10.20
2023-01-13T16:24:04.661Z,11.40
2023-01-13T16:34:10.418Z,7.80
2023-01-13T16:44:16.513Z,16.10
2023-01-13T16:54:22.208Z,14.50
2023-01-13T17:04:27.948Z,11.40
2023-01-13T17:14:33.676Z,10.40
2023-01-13T17:24:39.523Z,29.40
2023-01-13T17:34:45.983Z,15.80
2023-01-13T17:44:51.606Z,12.50
2023-01-13T17:54:57.359Z,26.00
2023-01-13T18:05:03.142Z,12.20
2023-01-13T18:15:10.643Z,13.20
2023-01-13T18:25:34.534Z,20.50
2023-01-13T18:35:42.016Z,15.00
2023-01-13T18:45:52.626Z,9.90
2023-01-13T18:55:58.406Z,8.90
2023-01-13T19:06:07.458Z,8.40
2023-01-13T19:16:13.552Z,10.30
2023-01-13T19:26:19.801Z,9.40
2023-01-13T19:36:26.950Z,11.40
2023-01-13T19:46:33.070Z,14.40
2023-01-13T19:56:38.718Z,12.90
2023-01-13T20:06:44.746Z,10.40
2023-01-13T20:16:50.898Z,11.30
2023-01-13T20:26:57.026Z,11.30
2023-01-13T20:37:02.885Z,13.80
2023-01-13T20:47:09.322Z,13.20
2023-01-13T20:57:15.799Z,16.20
2023-01-13T21:07:21.755Z,12.60
2023-01-13T21:17:45.138Z,12.40
2023-01-13T21:27:53.709Z,16.00
2023-01-13T21:37:59.832Z,10.60
2023-01-13T21:48:07.181Z,12.90
2023-01-13T21:58:14.738Z,12.10
2023-01-13T22:08:20.624Z,11.70
2023-01-13T22:18:26.292Z,11.50
2023-01-13T22:28:34.315Z,12.30
2023-01-13T22:38:40.558Z,13.80
2023-01-13T22:48:48.333Z,14.20
2023-01-13T22:58:57.946Z,12.60
2023-01-13T23:09:03.647Z,17.00
2023-01-13T23:19:11.209Z,14.90
2023-01-13T23:29:17.242Z,12.10
2023-01-13T23:39:24.598Z,11.50
2023-01-13T23:59:34.657Z,12.50
